Time;durP1;ratioP1;P1;durP2;ratioP2;P2;SDS_P1;SDS_P2;PMS_P1;PMS_P2;Temp;Humidity;BMP_temperature;BMP_pressure;BME280_temperature;BME280_humidity;BME280_pressure;Samples;Min_cycle;Max_cycle;Signal;HPM_P1;HPM_P2
2022/09/06 00:01:29;;;;;;;;;;;;;;;;;;5018094;28;1634;-74
2022/09/06 00:03:54;;;;;;;;;;;;;;;;;;5017487;28;1243;-74
2022/09/06 00:06:20;;;;;;;;;;;;;;;;;;5021427;28;1635;-74
2022/09/06 00:08:46;;;;;;;;;;;;;;;;;;5014164;28;1962;-74
2022/09/06 00:11:11;;;;;;;;;;;;;;;;;;5016484;28;1350;-74
2022/09/06 00:13:37;;;;;;;;;;;;;;;;;;5016203;28;1592;-74
2022/09/06 00:16:09;;;;;;;;;;;;;;;;;;5016954;28;1247;-74
2022/09/06 00:18:35;;;;;;;;;;;;;;;;;;5014566;28;1413;-73
2022/09/06 00:21:01;;;;;;;;;;;;;;;;;;5016925;28;1532;-74
2022/09/06 00:23:26;;;;;;;;;;;;;;;;;;5022801;28;1659;-74
2022/09/06 00:25:51;;;;;;;;;;;;;;;;;;5022066;28;1594;-74
2022/09/06 00:28:16;;;;;;;;;;;;;;;;;;5012520;28;1969;-72
2022/09/06 00:30:41;;;;;;;;;;;;;;;;;;5011104;28;1615;-72
2022/09/06 00:33:07;;;;;;;;;;;;;;;;;;5012069;28;1314;-74
2022/09/06 00:35:32;;;;;;;;;;;;;;;;;;5019576;28;1608;-74
2022/09/06 00:37:58;;;;;;;;;;;;;;;;;;5011490;28;1488;-73
2022/09/06 00:40:23;;;;;;;;;;;;;;;;;;5014976;28;1373;-73
2022/09/06 00:42:48;;;;;;;;;;;;;;;;;;5013816;28;1524;-74
2022/09/06 00:45:13;;;;;;;;;;;;;;;;;;5010375;28;1249;-73
2022/09/06 00:47:39;;;;;;;;;;;;;;;;;;5013295;28;1922;-73
2022/09/06 00:50:05;;;;;;;;;;;;;;;;;;5006881;28;1243;-73
2022/09/06 00:52:31;;;;;;;;;;;;;;;;;;5022079;28;1630;-73
2022/09/06 00:54:56;;;;;;;;;;;;;;;;;;5021976;28;1547;-74
2022/09/06 00:57:25;;;;;;;;;;;;;;;;;;5013433;28;1707;-75
2022/09/06 00:59:51;;;;;;;;;;;;;;;;;;5015927;28;1626;-74
2022/09/06 01:02:16;;;;;;;;;;;;;;;;;;5012557;28;1572;-73
2022/09/06 01:04:43;;;;;;;;;;;;;;;;;;5011955;28;1631;-74
2022/09/06 01:07:16;;;;;;;;;;;;;;;;;;5011514;28;1961;-74
2022/09/06 01:10:04;;;;;;;;;;;;;;;;;;5010931;28;1612;-74
2022/09/06 01:12:29;;;;;;;;;;;;;;;;;;5022430;28;1152;-73
2022/09/06 01:15:06;;;;;;;;;;;;;;;;;;5021353;28;1567;-73
2022/09/06 01:17:39;;;;;;;;;;;;;;;;;;5015479;28;1488;-74
2022/09/06 01:20:20;;;;;;;;;;;;;;;;;;5012067;28;1227;-73
2022/09/06 01:22:48;;;;;;;;;;;;;;;;;;5021498;28;1600;-74
2022/09/06 01:25:25;;;;;;;;;;;;;;;;;;5021138;28;1519;-74
2022/09/06 01:27:50;;;;;;;;;;;;;;;;;;5020926;28;1882;-74
2022/09/06 01:30:17;;;;;;;;;;;;;;;;;;5011853;28;1323;-74
2022/09/06 01:32:45;;;;;;;;;;;;;;;;;;5015489;28;1614;-73
2022/09/06 01:35:10;;;;;;;;;;;;;;;;;;5018898;28;1497;-74
2022/09/06 01:37:36;;;;;;;;;;;;;;;;;;5014549;28;1717;-73
2022/09/06 01:40:01;;;;;;;;;;;;;;;;;;5017972;28;1473;-74
2022/09/06 01:42:29;;;;;;;;;;;;;;;;;;5016524;28;1388;-72
2022/09/06 01:45:02;;;;;;;;;;;;;;;;;;5016725;28;1274;-72
2022/09/06 01:47:39;;;;;;;;;;;;;;;;;;5011807;28;1898;-72
2022/09/06 01:50:23;;;;;;;;;;;;;;;;;;5011459;28;1267;-73
2022/09/06 01:52:58;;;;;;;;;;;;;;;;;;5008569;28;1567;-73
2022/09/06 01:55:23;;;;;;;;;;;;;;;;;;5021049;28;1413;-72
2022/09/06 01:57:48;;;;;;;;;;;;;;;;;;5013985;28;1670;-72
2022/09/06 02:00:15;;;;;;;;;;;;;;;;;;5017128;28;1242;-72
2022/09/06 02:02:50;;;;;;;;;;;;;;;;;;5011744;28;1575;-72
2022/09/06 02:05:30;;;;;;;;;;;;;;;;;;5019269;28;1298;-72
2022/09/06 02:08:28;;;;;;;;;;;;;;;;;;5012614;28;1922;-72
2022/09/06 02:10:53;;;;;;;;;;;;;;;;;;4991741;28;1505;-72
2022/09/06 02:13:20;;;;;;;;;;;;;;;;;;5020221;28;1520;-73
2022/09/06 02:15:50;;;;;;;;;;;;;;;;;;5018810;28;1389;-75
2022/09/06 02:18:17;;;;;;;;;;;;;;;;;;5012510;28;1222;-75
2022/09/06 02:20:47;;;;;;;;;;;;;;;;;;5015319;28;1265;-73
2022/09/06 02:23:13;;;;;;;;;;;;;;;;;;5020813;28;1579;-73
2022/09/06 02:25:41;;;;;;;;;;;;;;;;;;5017127;28;1556;-73
2022/09/06 02:28:07;;;;;;;;;;;;;;;;;;5008269;28;1889;-74
2022/09/06 02:30:35;;;;;;;;;;;;;;;;;;5018089;28;1579;-73
2022/09/06 02:33:03;;;;;;;;;;;;;;;;;;5010982;28;1301;-74
2022/09/06 02:35:29;;;;;;;;;;;;;;;;;;5002652;28;1611;-74
2022/09/06 02:37:55;;;;;;;;;;;;;;;;;;5012073;28;1488;-75
2022/09/06 02:40:20;;;;;;;;;;;;;;;;;;5011441;28;1368;-75
2022/09/06 02:42:45;;;;;;;;;;;;;;;;;;5020485;28;1571;-74
2022/09/06 02:45:10;;;;;;;;;;;;;;;;;;5015268;28;1639;-75
2022/09/06 02:47:35;;;;;;;;;;;;;;;;;;5009960;28;1882;-74
2022/09/06 02:50:01;;;;;;;;;;;;;;;;;;5018592;28;1560;-75
2022/09/06 02:52:26;;;;;;;;;;;;;;;;;;5020104;28;1500;-75
2022/09/06 02:54:51;;;;;;;;;;;;;;;;;;5018973;28;1585;-75
2022/09/06 02:57:16;;;;;;;;;;;;;;;;;;5011238;28;1591;-74
2022/09/06 02:59:42;;;;;;;;;;;;;;;;;;5012106;28;1662;-74
2022/09/06 03:02:07;;;;;;;;;;;;;;;;;;5011156;28;1365;-74
2022/09/06 03:04:32;;;;;;;;;;;;;;;;;;5012711;28;1306;-74
2022/09/06 03:06:57;;;;;;;;;;;;;;;;;;5011835;28;1910;-74
2022/09/06 03:09:23;;;;;;;;;;;;;;;;;;5009347;28;1165;-74
2022/09/06 03:11:49;;;;;;;;;;;;;;;;;;5015309;28;1532;-75
2022/09/06 03:14:15;;;;;;;;;;;;;;;;;;5015915;28;1413;-74
2022/09/06 03:16:41;;;;;;;;;;;;;;;;;;5012920;28;1270;-74
2022/09/06 03:19:06;;;;;;;;;;;;;;;;;;5012358;28;1184;-74
2022/09/06 03:21:31;;;;;;;;;;;;;;;;;;5002462;28;1712;-74
2022/09/06 03:23:58;;;;;;;;;;;;;;;;;;5019454;28;1450;-74
2022/09/06 03:26:23;;;;;;;;;;;;;;;;;;5011782;28;1341;-76
2022/09/06 03:28:49;;;;;;;;;;;;;;;;;;5006862;28;1886;-76
2022/09/06 03:31:14;;;;;;;;;;;;;;;;;;5010567;28;1282;-76
2022/09/06 03:33:39;;;;;;;;;;;;;;;;;;5012035;28;1563;-74
2022/09/06 03:36:05;;;;;;;;;;;;;;;;;;5019235;28;1417;-74
2022/09/06 03:38:30;;;;;;;;;;;;;;;;;;5019722;28;1539;-74
2022/09/06 03:40:55;;;;;;;;;;;;;;;;;;5009880;28;1414;-74
2022/09/06 03:43:21;;;;;;;;;;;;;;;;;;5012944;28;1250;-73
2022/09/06 03:45:48;;;;;;;;;;;;;;;;;;5011954;28;1214;-73
2022/09/06 03:48:14;;;;;;;;;;;;;;;;;;5006465;28;1906;-72
2022/09/06 03:50:45;;;;;;;;;;;;;;;;;;5019046;28;1831;-73
2022/09/06 03:53:10;;;;;;;;;;;;;;;;;;5011633;28;1251;-74
2022/09/06 03:55:35;;;;;;;;;;;;;;;;;;5019213;28;1485;-74
2022/09/06 03:58:00;;;;;;;;;;;;;;;;;;5018819;28;1607;-73
2022/09/06 04:00:25;;;;;;;;;;;;;;;;;;5009041;28;1334;-74
2022/09/06 04:02:50;;;;;;;;;;;;;;;;;;5011325;28;1527;-74
2022/09/06 04:05:16;;;;;;;;;;;;;;;;;;5002202;28;1290;-73
2022/09/06 04:07:41;;;;;;;;;;;;;;;;;;5022925;28;1906;-74
2022/09/06 04:10:07;;;;;;;;;;;;;;;;;;5019089;28;1485;-72
2022/09/06 04:12:33;;;;;;;;;;;;;;;;;;5012398;28;1433;-72
2022/09/06 04:14:58;;;;;;;;;;;;;;;;;;5014456;28;1602;-74
2022/09/06 04:17:24;;;;;;;;;;;;;;;;;;5012948;28;1505;-74
2022/09/06 04:19:49;;;;;;;;;;;;;;;;;;5008486;28;1120;-74
2022/09/06 04:22:14;;;;;;;;;;;;;;;;;;5012626;28;1666;-74
2022/09/06 04:24:39;;;;;;;;;;;;;;;;;;5008523;28;1415;-74
2022/09/06 04:27:04;;;;;;;;;;;;;;;;;;5016548;28;1959;-74
2022/09/06 04:29:30;;;;;;;;;;;;;;;;;;5013498;28;1513;-74
2022/09/06 04:31:55;;;;;;;;;;;;;;;;;;5012084;28;1667;-72
2022/09/06 04:34:20;;;;;;;;;;;;;;;;;;5013483;28;1287;-72
2022/09/06 04:36:45;;;;;;;;;;;;;;;;;;5013134;28;1212;-72
2022/09/06 04:39:10;;;;;;;;;;;;;;;;;;5014108;28;1221;-72
2022/09/06 04:41:35;;;;;;;;;;;;;;;;;;5013349;28;1586;-72
2022/09/06 04:44:01;;;;;;;;;;;;;;;;;;5015570;28;1264;-73
2022/09/06 04:46:27;;;;;;;;;;;;;;;;;;5012964;28;1305;-72
2022/09/06 04:48:53;;;;;;;;;;;;;;;;;;5012654;28;1961;-74
2022/09/06 04:51:19;;;;;;;;;;;;;;;;;;5022448;28;1642;-73
2022/09/06 04:53:44;;;;;;;;;;;;;;;;;;5042200;23;2022;-73
2022/09/06 04:56:17;;;;;;;;;;;;;;;;;;5005440;28;1618;-70
2022/09/06 04:58:43;;;;;;;;;;;;;;;;;;5032261;28;1258;-67
2022/09/06 05:01:08;;;;;;;;;;;;;;;;;;5022003;28;1318;-67
2022/09/06 05:03:33;;;;;;;;;;;;;;;;;;5032263;28;1351;-71
2022/09/06 05:06:03;;;;;;;;;;;;;;;;;;5030192;28;1285;-66
2022/09/06 05:08:28;;;;;;;;;;;;;;;;;;5026693;28;1914;-66
2022/09/06 05:10:53;;;;;;;;;;;;;;;;;;5030375;28;1599;-66
2022/09/06 05:13:18;;;;;;;;;;;;;;;;;;5029370;28;1334;-66
2022/09/06 05:15:43;;;;;;;;;;;;;;;;;;5026727;28;1254;-66
2022/09/06 05:18:09;;;;;;;;;;;;;;;;;;5030505;28;1365;-65
2022/09/06 05:20:34;;;;;;;;;;;;;;;;;;5034232;28;1081;-67
2022/09/06 05:23:00;;;;;;;;;;;;;;;;;;5042110;28;1184;-67
2022/09/06 05:25:25;;;;;;;;;;;;;;;;;;5042048;28;839;-67
2022/09/06 05:27:50;;;;;;;;;;;;;;;;;;5036190;28;1894;-67
2022/09/06 05:30:16;;;;;;;;;;;;;;;;;;5028355;28;1246;-67
2022/09/06 05:32:42;;;;;;;;;;;;;;;;;;5030607;28;1302;-66
2022/09/06 05:35:07;;;;;;;;;;;;;;;;;;5039376;28;1038;-67
2022/09/06 05:37:32;;;;;;;;;;;;;;;;;;5024769;28;1452;-67
2022/09/06 05:39:58;;;;;;;;;;;;;;;;;;5030344;28;1049;-67
2022/09/06 05:42:24;;;;;;;;;;;;;;;;;;5018676;28;1279;-67
2022/09/06 05:44:49;;;;;;;;;;;;;;;;;;5029672;28;1038;-67
2022/09/06 05:47:14;;;;;;;;;;;;;;;;;;5029372;28;1897;-67
2022/09/06 05:49:40;;;;;;;;;;;;;;;;;;5035980;28;1133;-67
2022/09/06 05:52:05;;;;;;;;;;;;;;;;;;5024064;28;1503;-67
2022/09/06 05:54:30;;;;;;;;;;;;;;;;;;5032957;28;1076;-67
2022/09/06 05:56:56;;;;;;;;;;;;;;;;;;5040416;28;1654;-67
2022/09/06 05:59:21;;;;;;;;;;;;;;;;;;5030478;28;956;-67
2022/09/06 06:01:50;;;;;;;;;;;;;;;;;;5008216;28;1648;-67
2022/09/06 06:04:17;;;;;;;;;;;;;;;;;;5033718;28;1278;-67
2022/09/06 06:06:43;;;;;;;;;;;;;;;;;;5028313;28;1642;-67
2022/09/06 06:09:08;;;;;;;;;;;;;;;;;;5033734;28;1960;-67
2022/09/06 06:11:33;;;;;;;;;;;;;;;;;;5020867;28;1500;-67
2022/09/06 06:13:58;;;;;;;;;;;;;;;;;;5028325;28;1314;-67
2022/09/06 06:16:24;;;;;;;;;;;;;;;;;;5039332;28;1217;-67
2022/09/06 06:18:49;;;;;;;;;;;;;;;;;;5033169;28;1252;-67
2022/09/06 06:21:16;;;;;;;;;;;;;;;;;;5032569;28;1539;-67
2022/09/06 06:23:43;;;;;;;;;;;;;;;;;;5028988;28;1381;-66
2022/09/06 06:26:08;;;;;;;;;;;;;;;;;;5032504;28;1100;-67
2022/09/06 06:28:34;;;;;;;;;;;;;;;;;;5031278;28;1943;-67
2022/09/06 06:31:00;;;;;;;;;;;;;;;;;;5026527;28;1381;-67
2022/09/06 06:33:25;;;;;;;;;;;;;;;;;;5030872;28;1627;-67
2022/09/06 06:36:00;;;;;;;;;;;;;;;;;;5025311;28;1254;-67
2022/09/06 06:38:33;;;;;;;;;;;;;;;;;;5025644;28;1188;-67
2022/09/06 06:40:58;;;;;;;;;;;;;;;;;;5028450;28;1530;-67
2022/09/06 06:43:23;;;;;;;;;;;;;;;;;;5020789;28;1558;-67
2022/09/06 06:45:49;;;;;;;;;;;;;;;;;;5021912;28;1230;-67
2022/09/06 06:48:14;;;;;;;;;;;;;;;;;;5031696;28;1953;-67
2022/09/06 06:50:39;;;;;;;;;;;;;;;;;;5041498;28;938;-67
2022/09/06 06:53:05;;;;;;;;;;;;;;;;;;5035215;28;1436;-67
2022/09/06 06:55:30;;;;;;;;;;;;;;;;;;5020780;28;899;-67
2022/09/06 06:57:58;;;;;;;;;;;;;;;;;;5026481;28;1664;-67
2022/09/06 07:00:23;;;;;;;;;;;;;;;;;;5028942;28;1313;-67
2022/09/06 07:02:48;;;;;;;;;;;;;;;;;;5029245;28;1505;-67
2022/09/06 07:05:13;;;;;;;;;;;;;;;;;;5035797;28;1353;-67
2022/09/06 07:07:39;;;;;;;;;;;;;;;;;;5025955;28;1906;-67
2022/09/06 07:10:04;;;;;;;;;;;;;;;;;;5027756;28;1392;-67
2022/09/06 07:12:29;;;;;;;;;;;;;;;;;;5032895;28;1329;-67
2022/09/06 07:14:54;;;;;;;;;;;;;;;;;;5026749;28;1504;-67
2022/09/06 07:17:20;;;;;;;;;;;;;;;;;;5028598;28;1691;-67
2022/09/06 07:19:45;;;;;;;;;;;;;;;;;;5028067;28;1396;-67
2022/09/06 07:22:10;;;;;;;;;;;;;;;;;;5029755;28;1417;-67
2022/09/06 07:24:35;;;;;;;;;;;;;;;;;;5028107;28;1046;-67
2022/09/06 07:27:00;;;;;;;;;;;;;;;;;;5010483;28;1545;-67
2022/09/06 07:29:25;;;;;;;;;;;;;;;;;;5032539;28;1956;-67
2022/09/06 07:31:55;;;;;;;;;;;;;;;;;;5029093;28;1599;-67
2022/09/06 07:34:20;;;;;;;;;;;;;;;;;;5021757;28;1474;-68
2022/09/06 07:36:46;;;;;;;;;;;;;;;;;;5025198;28;1282;-67
2022/09/06 07:39:11;;;;;;;;;;;;;;;;;;5021868;28;1628;-68
2022/09/06 07:41:36;;;;;;;;;;;;;;;;;;5030586;28;1599;-67
2022/09/06 07:44:01;;;;;;;;;;;;;;;;;;5023031;28;1411;-67
2022/09/06 07:46:26;;;;;;;;;;;;;;;;;;5029623;28;1392;-67
2022/09/06 07:48:52;;;;;;;;;;;;;;;;;;5032227;28;1960;-67
2022/09/06 07:51:18;;;;;;;;;;;;;;;;;;5027736;28;1619;-67
2022/09/06 07:53:46;;;;;;;;;;;;;;;;;;5032693;28;1877;-67
2022/09/06 07:56:11;;;;;;;;;;;;;;;;;;5029466;28;1226;-68
2022/09/06 07:58:38;;;;;;;;;;;;;;;;;;5011721;28;1267;-68
2022/09/06 08:01:33;;;;;;;;;;;;;;;;;;5028269;28;1396;-68
2022/09/06 08:04:02;;;;;;;;;;;;;;;;;;5026217;28;1409;-68
2022/09/06 08:06:28;;;;;;;;;;;;;;;;;;5029477;28;1456;-67
2022/09/06 08:08:54;;;;;;;;;;;;;;;;;;5017696;28;1890;-68
2022/09/06 08:11:20;;;;;;;;;;;;;;;;;;5032943;28;1650;-68
2022/09/06 08:13:49;;;;;;;;;;;;;;;;;;5034428;28;1380;-68
2022/09/06 08:16:15;;;;;;;;;;;;;;;;;;5022291;28;1424;-68
2022/09/06 08:18:41;;;;;;;;;;;;;;;;;;5029418;28;1254;-67
2022/09/06 08:21:07;;;;;;;;;;;;;;;;;;5032069;28;1352;-68
2022/09/06 08:23:33;;;;;;;;;;;;;;;;;;5007926;28;1648;-67
2022/09/06 08:25:58;;;;;;;;;;;;;;;;;;5033807;28;1314;-68
2022/09/06 08:28:23;;;;;;;;;;;;;;;;;;5027020;28;1898;-67
2022/09/06 08:30:49;;;;;;;;;;;;;;;;;;5029160;28;1598;-67
2022/09/06 08:33:14;;;;;;;;;;;;;;;;;;5033051;28;1315;-67
2022/09/06 08:35:39;;;;;;;;;;;;;;;;;;5041234;28;1476;-67
2022/09/06 08:38:05;;;;;;;;;;;;;;;;;;5032228;28;1124;-67
2022/09/06 08:40:30;;;;;;;;;;;;;;;;;;5029542;28;1619;-67
2022/09/06 08:42:55;;;;;;;;;;;;;;;;;;5033733;28;1356;-67
2022/09/06 08:45:22;;;;;;;;;;;;;;;;;;5019906;28;1366;-67
2022/09/06 08:47:49;;;;;;;;;;;;;;;;;;5030446;28;1989;-67
2022/09/06 08:50:15;;;;;;;;;;;;;;;;;;5029687;28;1313;-67
2022/09/06 08:53:06;;;;;;;;;;;;;;;;;;5024373;28;1480;-67
2022/09/06 08:55:31;;;;;;;;;;;;;;;;;;5022890;28;1485;-66
2022/09/06 08:58:04;;;;;;;;;;;;;;;;;;5030343;28;1275;-67
2022/09/06 09:00:30;;;;;;;;;;;;;;;;;;5021135;28;1341;-68
2022/09/06 09:03:03;;;;;;;;;;;;;;;;;;5004194;28;1624;-67
2022/09/06 09:05:35;;;;;;;;;;;;;;;;;;5025393;28;1305;-67
2022/09/06 09:08:06;;;;;;;;;;;;;;;;;;5033413;28;1898;-67
2022/09/06 09:10:40;;;;;;;;;;;;;;;;;;5030241;28;1448;-67
2022/09/06 09:13:06;;;;;;;;;;;;;;;;;;5024231;28;1255;-67
2022/09/06 09:15:33;;;;;;;;;;;;;;;;;;5020328;28;1583;-68
2022/09/06 09:17:58;;;;;;;;;;;;;;;;;;5030711;28;1258;-67
2022/09/06 09:20:24;;;;;;;;;;;;;;;;;;5031452;28;1639;-67
2022/09/06 09:22:49;;;;;;;;;;;;;;;;;;5030707;28;1287;-67
2022/09/06 09:25:21;;;;;;;;;;;;;;;;;;5030961;28;1238;-67
2022/09/06 09:27:49;;;;;;;;;;;;;;;;;;5033514;28;1871;-67
2022/09/06 09:30:14;;;;;;;;;;;;;;;;;;5020163;28;1386;-67
2022/09/06 09:32:41;;;;;;;;;;;;;;;;;;5028268;28;1409;-67
2022/09/06 09:35:20;;;;;;;;;;;;;;;;;;5029106;28;1393;-68
2022/09/06 09:37:46;;;;;;;;;;;;;;;;;;5034065;28;1136;-67
2022/09/06 09:40:13;;;;;;;;;;;;;;;;;;5028807;28;1563;-68
2022/09/06 09:42:38;;;;;;;;;;;;;;;;;;5033885;28;1318;-67
2022/09/06 09:45:06;;;;;;;;;;;;;;;;;;5040577;28;1575;-67
2022/09/06 09:47:32;;;;;;;;;;;;;;;;;;5029742;28;1874;-68
2022/09/06 09:49:58;;;;;;;;;;;;;;;;;;5030622;28;1101;-67
2022/09/06 09:52:25;;;;;;;;;;;;;;;;;;5041552;28;1307;-67
2022/09/06 09:54:54;;;;;;;;;;;;;;;;;;5033170;28;1538;-67
2022/09/06 09:57:20;;;;;;;;;;;;;;;;;;5030001;28;1337;-67
2022/09/06 09:59:53;;;;;;;;;;;;;;;;;;5036320;28;1499;-67
2022/09/06 10:02:27;;;;;;;;;;;;;;;;;;5030538;28;1598;-66
2022/09/06 10:04:58;;;;;;;;;;;;;;;;;;5023755;28;1326;-66
2022/09/06 10:07:23;;;;;;;;;;;;;;;;;;5030330;28;1955;-66
2022/09/06 10:10:07;;;;;;;;;;;;;;;;;;5021218;28;1572;-66
2022/09/06 10:12:39;;;;;;;;;;;;;;;;;;5022739;28;1330;-66
2022/09/06 10:15:09;;;;;;;;;;;;;;;;;;5019819;28;1536;-66
2022/09/06 10:17:34;;;;;;;;;;;;;;;;;;5029489;28;1032;-66
2022/09/06 10:20:01;;;;;;;;;;;;;;;;;;5030359;28;1270;-67
2022/09/06 10:22:27;;;;;;;;;;;;;;;;;;5011667;28;1726;-66
2022/09/06 10:24:55;;;;;;;;;;;;;;;;;;5030142;28;1372;-66
2022/09/06 10:27:29;;;;;;;;;;;;;;;;;;5032392;28;1898;-66
2022/09/06 10:30:05;;;;;;;;;;;;;;;;;;5023638;28;1829;-66
2022/09/06 10:32:40;;;;;;;;;;;;;;;;;;5028291;28;1451;-66
2022/09/06 10:35:22;;;;;;;;;;;;;;;;;;5025953;28;1608;-67
2022/09/06 10:38:06;;;;;;;;;;;;;;;;;;5018500;28;1117;-66
2022/09/06 10:40:50;;;;;;;;;;;;;;;;;;5029584;28;1654;-67
2022/09/06 10:43:18;;;;;;;;;;;;;;;;;;5027468;28;1347;-66
2022/09/06 10:45:45;;;;;;;;;;;;;;;;;;5025167;28;1262;-67
2022/09/06 10:48:24;;;;;;;;;;;;;;;;;;5029319;28;1943;-66
2022/09/06 10:50:56;;;;;;;;;;;;;;;;;;5028614;28;1519;-66
2022/09/06 10:53:21;;;;;;;;;;;;;;;;;;5055206;22;3454;-70
2022/09/06 10:55:49;;;;;;;;;;;;;;;;;;5052401;28;1553;-70
2022/09/06 10:58:20;;;;;;;;;;;;;;;;;;5055933;28;1275;-70
2022/09/06 11:00:47;;;;;;;;;;;;;;;;;;5058283;28;1581;-69
2022/09/06 11:03:17;;;;;;;;;;;;;;;;;;5046169;28;1395;-70
2022/09/06 11:05:44;;;;;;;;;;;;;;;;;;5026798;28;1248;-69
2022/09/06 11:08:14;;;;;;;;;;;;;;;;;;5034749;28;1913;-69
2022/09/06 11:10:44;;;;;;;;;;;;;;;;;;5027481;28;1319;-70
2022/09/06 11:13:12;;;;;;;;;;;;;;;;;;5034835;28;1357;-68
2022/09/06 11:16:01;;;;;;;;;;;;;;;;;;5035213;28;1296;-69
2022/09/06 11:18:39;;;;;;;;;;;;;;;;;;5033011;28;1112;-69
2022/09/06 11:21:14;;;;;;;;;;;;;;;;;;5040715;28;976;-69
2022/09/06 11:23:42;;;;;;;;;;;;;;;;;;5041502;28;1294;-70
2022/09/06 11:26:15;;;;;;;;;;;;;;;;;;5030892;28;1331;-69
2022/09/06 11:28:46;;;;;;;;;;;;;;;;;;5039804;28;1886;-69
2022/09/06 11:31:16;;;;;;;;;;;;;;;;;;5038635;28;1243;-69
2022/09/06 11:33:41;;;;;;;;;;;;;;;;;;5028742;28;2182;-68
2022/09/06 11:36:25;;;;;;;;;;;;;;;;;;5027691;28;1423;-69
2022/09/06 11:38:58;;;;;;;;;;;;;;;;;;5026574;28;1312;-69
2022/09/06 11:41:27;;;;;;;;;;;;;;;;;;5031296;28;1510;-69
2022/09/06 11:43:52;;;;;;;;;;;;;;;;;;5034974;28;1351;-69
2022/09/06 11:46:33;;;;;;;;;;;;;;;;;;5038824;28;1244;-69
2022/09/06 11:49:00;;;;;;;;;;;;;;;;;;5031191;28;1956;-69
2022/09/06 11:51:32;;;;;;;;;;;;;;;;;;5022946;28;1633;-69
2022/09/06 11:53:58;;;;;;;;;;;;;;;;;;5030625;28;1266;-68
2022/09/06 11:56:41;;;;;;;;;;;;;;;;;;5035014;28;1328;-69
2022/09/06 11:59:18;;;;;;;;;;;;;;;;;;5033564;28;1299;-69
2022/09/06 12:01:58;;;;;;;;;;;;;;;;;;5026958;28;1276;-69
2022/09/06 12:04:43;;;;;;;;;;;;;;;;;;5029753;28;1510;-69
2022/09/06 12:07:10;;;;;;;;;;;;;;;;;;5035874;28;1256;-69
2022/09/06 12:09:45;;;;;;;;;;;;;;;;;;5033492;28;1890;-68
2022/09/06 12:12:10;;;;;;;;;;;;;;;;;;5031498;28;935;-69
2022/09/06 12:14:39;;;;;;;;;;;;;;;;;;5042042;28;1478;-68
2022/09/06 12:17:05;;;;;;;;;;;;;;;;;;5030886;28;1268;-68
2022/09/06 12:19:43;;;;;;;;;;;;;;;;;;5040027;28;1139;-67
2022/09/06 12:22:29;;;;;;;;;;;;;;;;;;5040034;28;949;-68
2022/09/06 12:25:01;;;;;;;;;;;;;;;;;;5030384;28;1534;-68
2022/09/06 12:27:33;;;;;;;;;;;;;;;;;;5041987;28;1897;-68
2022/09/06 12:30:00;;;;;;;;;;;;;;;;;;5036067;28;1301;-68
2022/09/06 12:32:32;;;;;;;;;;;;;;;;;;5036884;28;1609;-68
2022/09/06 12:34:57;;;;;;;;;;;;;;;;;;5031000;28;1590;-68
2022/09/06 12:37:49;;;;;;;;;;;;;;;;;;5032690;28;1221;-69
2022/09/06 12:40:16;;;;;;;;;;;;;;;;;;5035211;28;1560;-68
2022/09/06 12:42:42;;;;;;;;;;;;;;;;;;5032947;28;1649;-68
2022/09/06 12:45:10;;;;;;;;;;;;;;;;;;5038547;28;1280;-68
2022/09/06 12:47:36;;;;;;;;;;;;;;;;;;5036754;28;1930;-69
2022/09/06 12:50:06;;;;;;;;;;;;;;;;;;5034697;28;1123;-69
2022/09/06 12:52:31;;;;;;;;;;;;;;;;;;5037912;28;1578;-68
2022/09/06 12:54:56;;;;;;;;;;;;;;;;;;5035069;28;1309;-68
2022/09/06 12:57:23;;;;;;;;;;;;;;;;;;5034714;28;1187;-69
2022/09/06 12:59:50;;;;;;;;;;;;;;;;;;5042660;28;810;-69
2022/09/06 13:02:19;;;;;;;;;;;;;;;;;;5033949;28;1454;-69
2022/09/06 13:04:52;;;;;;;;;;;;;;;;;;5040314;28;1364;-69
2022/09/06 13:07:17;;;;;;;;;;;;;;;;;;5041351;28;1981;-69
2022/09/06 13:09:47;;;;;;;;;;;;;;;;;;5047055;28;1292;-69
2022/09/06 13:12:20;;;;;;;;;;;;;;;;;;5042468;28;1552;-69
2022/09/06 13:14:45;;;;;;;;;;;;;;;;;;5032858;28;1269;-69
2022/09/06 13:17:21;;;;;;;;;;;;;;;;;;5033124;28;1261;-69
2022/09/06 13:19:47;;;;;;;;;;;;;;;;;;5041824;28;1280;-69
2022/09/06 13:22:32;;;;;;;;;;;;;;;;;;5032057;28;1320;-69
2022/09/06 13:24:57;;;;;;;;;;;;;;;;;;5033537;28;1580;-69
2022/09/06 13:27:24;;;;;;;;;;;;;;;;;;5042264;28;1902;-69
2022/09/06 13:29:56;;;;;;;;;;;;;;;;;;5042294;28;1557;-69
2022/09/06 13:32:21;;;;;;;;;;;;;;;;;;5042575;28;1337;-69
2022/09/06 13:34:55;;;;;;;;;;;;;;;;;;5044820;28;1478;-68
2022/09/06 13:37:21;;;;;;;;;;;;;;;;;;5033094;28;1260;-69
2022/09/06 13:39:47;;;;;;;;;;;;;;;;;;5032257;28;1395;-69
2022/09/06 13:42:24;;;;;;;;;;;;;;;;;;5038863;28;1276;-69
2022/09/06 13:44:52;;;;;;;;;;;;;;;;;;5030004;28;1498;-68
2022/09/06 13:47:17;;;;;;;;;;;;;;;;;;5041164;28;1910;-69
2022/09/06 13:49:42;;;;;;;;;;;;;;;;;;5028652;28;1325;-69
2022/09/06 13:52:07;;;;;;;;;;;;;;;;;;5039789;28;1159;-69
2022/09/06 13:54:33;;;;;;;;;;;;;;;;;;5032014;28;1617;-69
2022/09/06 13:57:00;;;;;;;;;;;;;;;;;;5040909;28;1339;-69
2022/09/06 13:59:26;;;;;;;;;;;;;;;;;;5039279;28;1183;-69
2022/09/06 14:02:02;;;;;;;;;;;;;;;;;;5039708;28;1533;-68
2022/09/06 14:04:27;;;;;;;;;;;;;;;;;;5028867;28;1296;-69
2022/09/06 14:06:53;;;;;;;;;;;;;;;;;;5037301;28;1010;-69
2022/09/06 14:09:18;;;;;;;;;;;;;;;;;;5038293;28;1969;-69
2022/09/06 14:11:43;;;;;;;;;;;;;;;;;;5030405;28;1602;-69
2022/09/06 14:14:08;;;;;;;;;;;;;;;;;;5039749;28;1304;-69
2022/09/06 14:16:34;;;;;;;;;;;;;;;;;;5035009;28;1511;-69
2022/09/06 14:18:59;;;;;;;;;;;;;;;;;;5040997;28;1368;-68
2022/09/06 14:21:24;;;;;;;;;;;;;;;;;;5028576;28;1625;-69
2022/09/06 14:23:50;;;;;;;;;;;;;;;;;;5035723;28;1272;-69
2022/09/06 14:26:17;;;;;;;;;;;;;;;;;;5030435;28;1152;-69
2022/09/06 14:28:42;;;;;;;;;;;;;;;;;;5060398;28;1889;-69
2022/09/06 14:31:12;;;;;;;;;;;;;;;;;;5050157;28;1581;-69
2022/09/06 14:33:37;;;;;;;;;;;;;;;;;;5029026;28;1652;-69
2022/09/06 14:36:06;;;;;;;;;;;;;;;;;;5028510;28;1193;-69
2022/09/06 14:38:33;;;;;;;;;;;;;;;;;;5045356;28;1452;-68
2022/09/06 14:41:02;;;;;;;;;;;;;;;;;;5038706;28;1410;-69
2022/09/06 14:43:27;;;;;;;;;;;;;;;;;;5038370;28;1340;-69
2022/09/06 14:45:53;;;;;;;;;;;;;;;;;;5031456;28;1418;-69
2022/09/06 14:48:18;;;;;;;;;;;;;;;;;;5034890;28;1953;-69
2022/09/06 14:50:43;;;;;;;;;;;;;;;;;;5032352;28;1294;-69
2022/09/06 14:53:09;;;;;;;;;;;;;;;;;;5037555;28;1499;-68
2022/09/06 14:55:34;;;;;;;;;;;;;;;;;;5026995;28;1285;-69
2022/09/06 14:58:00;;;;;;;;;;;;;;;;;;5037738;28;1140;-69
2022/09/06 15:00:25;;;;;;;;;;;;;;;;;;5031198;28;1546;-69
2022/09/06 15:02:50;;;;;;;;;;;;;;;;;;5049027;28;1490;-69
2022/09/06 15:05:15;;;;;;;;;;;;;;;;;;5036846;28;1260;-69
2022/09/06 15:07:40;;;;;;;;;;;;;;;;;;5025915;28;1902;-68
2022/09/06 15:10:06;;;;;;;;;;;;;;;;;;5036139;28;1307;-68
2022/09/06 15:12:31;;;;;;;;;;;;;;;;;;5044071;28;1462;-69
2022/09/06 15:14:56;;;;;;;;;;;;;;;;;;5040113;28;1176;-69
2022/09/06 15:17:21;;;;;;;;;;;;;;;;;;5031727;28;1693;-69
2022/09/06 15:19:47;;;;;;;;;;;;;;;;;;5039420;28;1276;-69
2022/09/06 15:22:12;;;;;;;;;;;;;;;;;;5036819;28;1672;-69
2022/09/06 15:24:39;;;;;;;;;;;;;;;;;;5031706;28;1466;-69
2022/09/06 15:27:04;;;;;;;;;;;;;;;;;;5040416;28;1060;-69
2022/09/06 15:29:29;;;;;;;;;;;;;;;;;;5040775;28;1893;-69
2022/09/06 15:31:55;;;;;;;;;;;;;;;;;;5036730;28;1570;-69
2022/09/06 15:34:21;;;;;;;;;;;;;;;;;;5030746;28;1275;-69
2022/09/06 15:36:47;;;;;;;;;;;;;;;;;;5032003;28;2033;-69
2022/09/06 15:39:13;;;;;;;;;;;;;;;;;;5040502;28;834;-69
2022/09/06 15:41:39;;;;;;;;;;;;;;;;;;5040708;28;830;-69
2022/09/06 15:44:06;;;;;;;;;;;;;;;;;;5038786;28;1606;-69
2022/09/06 15:46:34;;;;;;;;;;;;;;;;;;5026172;28;1344;-69
2022/09/06 15:49:01;;;;;;;;;;;;;;;;;;5035866;28;1910;-69
2022/09/06 15:51:27;;;;;;;;;;;;;;;;;;5045538;28;1442;-69
2022/09/06 15:53:52;;;;;;;;;;;;;;;;;;5032218;28;1239;-69
2022/09/06 15:56:17;;;;;;;;;;;;;;;;;;5039462;28;842;-69
2022/09/06 15:58:44;;;;;;;;;;;;;;;;;;5037320;28;1714;-69
2022/09/06 16:01:13;;;;;;;;;;;;;;;;;;5038543;28;1359;-68
2022/09/06 16:03:40;;;;;;;;;;;;;;;;;;5037262;28;1380;-69
2022/09/06 16:06:10;;;;;;;;;;;;;;;;;;5035924;28;1598;-69
2022/09/06 16:08:36;;;;;;;;;;;;;;;;;;5036030;28;1898;-68
2022/09/06 16:11:11;;;;;;;;;;;;;;;;;;5033840;28;1426;-69
2022/09/06 16:13:37;;;;;;;;;;;;;;;;;;5037057;28;1219;-68
2022/09/06 16:16:04;;;;;;;;;;;;;;;;;;5039701;28;1486;-69
2022/09/06 16:18:33;;;;;;;;;;;;;;;;;;5036593;28;1204;-69
2022/09/06 16:21:10;;;;;;;;;;;;;;;;;;5035255;28;1167;-69
2022/09/06 16:23:35;;;;;;;;;;;;;;;;;;5044084;28;1164;-69
2022/09/06 16:26:00;;;;;;;;;;;;;;;;;;5040432;28;1506;-69
2022/09/06 16:28:27;;;;;;;;;;;;;;;;;;5043046;28;1965;-68
2022/09/06 16:30:52;;;;;;;;;;;;;;;;;;5043633;28;1547;-68
2022/09/06 16:33:17;;;;;;;;;;;;;;;;;;5034291;28;1331;-68
2022/09/06 16:35:42;;;;;;;;;;;;;;;;;;5033768;28;1248;-69
2022/09/06 16:38:08;;;;;;;;;;;;;;;;;;5037105;28;1476;-68
2022/09/06 16:40:34;;;;;;;;;;;;;;;;;;5036218;28;1174;-69
2022/09/06 16:42:59;;;;;;;;;;;;;;;;;;5042878;28;1259;-69
2022/09/06 16:45:25;;;;;;;;;;;;;;;;;;5040920;28;1450;-68
2022/09/06 16:47:50;;;;;;;;;;;;;;;;;;5034773;28;1890;-69
2022/09/06 16:50:15;;;;;;;;;;;;;;;;;;5040978;28;1295;-70
2022/09/06 16:52:40;;;;;;;;;;;;;;;;;;5036154;28;1422;-69
2022/09/06 16:55:06;;;;;;;;;;;;;;;;;;5042577;28;1256;-70
2022/09/06 16:57:32;;;;;;;;;;;;;;;;;;5035534;28;977;-70
2022/09/06 16:59:57;;;;;;;;;;;;;;;;;;5051636;28;1466;-70
2022/09/06 17:02:22;;;;;;;;;;;;;;;;;;5034372;28;1624;-69
2022/09/06 17:04:48;;;;;;;;;;;;;;;;;;5034455;28;1413;-69
2022/09/06 17:07:13;;;;;;;;;;;;;;;;;;5035461;28;1637;-69